sensor_id;sensor_type;location;lat;lon;timestamp;temperature;humidity
68217;DHT22;55037;52.354;4.992;2022-12-04T00:01:25;3.00;77.10
68217;DHT22;55037;52.354;4.992;2022-12-04T00:03:54;3.00;77.10
68217;DHT22;55037;52.354;4.992;2022-12-04T00:06:22;3.10;76.90
68217;DHT22;55037;52.354;4.992;2022-12-04T00:08:50;3.10;76.80
68217;DHT22;55037;52.354;4.992;2022-12-04T00:11:21;3.10;76.80
68217;DHT22;55037;52.354;4.992;2022-12-04T00:13:49;3.00;77.90
68217;DHT22;55037;52.354;4.992;2022-12-04T00:16:19;3.00;77.10
68217;DHT22;55037;52.354;4.992;2022-12-04T00:18:47;3.00;77.00
68217;DHT22;55037;52.354;4.992;2022-12-04T00:21:16;3.10;77.10
68217;DHT22;55037;52.354;4.992;2022-12-04T00:23:44;3.00;77.10
68217;DHT22;55037;52.354;4.992;2022-12-04T00:26:18;3.00;77.20
68217;DHT22;55037;52.354;4.992;2022-12-04T00:28:46;3.00;76.60
68217;DHT22;55037;52.354;4.992;2022-12-04T00:31:16;3.00;77.30
68217;DHT22;55037;52.354;4.992;2022-12-04T00:33:44;3.00;77.40
68217;DHT22;55037;52.354;4.992;2022-12-04T00:36:13;3.00;77.30
68217;DHT22;55037;52.354;4.992;2022-12-04T00:38:41;3.00;77.30
68217;DHT22;55037;52.354;4.992;2022-12-04T00:41:12;3.00;77.40
68217;DHT22;55037;52.354;4.992;2022-12-04T00:43:40;3.00;77.70
68217;DHT22;55037;52.354;4.992;2022-12-04T00:46:08;3.00;77.60
68217;DHT22;55037;52.354;4.992;2022-12-04T00:48:36;3.00;76.70
68217;DHT22;55037;52.354;4.992;2022-12-04T00:51:05;3.00;77.50
68217;DHT22;55037;52.354;4.992;2022-12-04T00:53:33;3.00;77.60
68217;DHT22;55037;52.354;4.992;2022-12-04T00:56:09;2.90;77.80
68217;DHT22;55037;52.354;4.992;2022-12-04T00:58:37;3.00;77.90
68217;DHT22;55037;52.354;4.992;2022-12-04T01:01:10;3.10;77.80
68217;DHT22;55037;52.354;4.992;2022-12-04T01:03:38;3.10;77.60
68217;DHT22;55037;52.354;4.992;2022-12-04T01:06:06;3.20;77.30
68217;DHT22;55037;52.354;4.992;2022-12-04T01:08:33;3.10;77.50
68217;DHT22;55037;52.354;4.992;2022-12-04T01:11:04;3.10;78.50
68217;DHT22;55037;52.354;4.992;2022-12-04T01:13:31;3.10;77.60
68217;DHT22;55037;52.354;4.992;2022-12-04T01:15:59;3.20;77.60
68217;DHT22;55037;52.354;4.992;2022-12-04T01:18:26;3.20;77.30
68217;DHT22;55037;52.354;4.992;2022-12-04T01:20:53;3.20;77.40
68217;DHT22;55037;52.354;4.992;2022-12-04T01:23:20;3.20;77.40
68217;DHT22;55037;52.354;4.992;2022-12-04T01:25:56;3.20;77.40
68217;DHT22;55037;52.354;4.992;2022-12-04T01:28:24;3.10;76.50
68217;DHT22;55037;52.354;4.992;2022-12-04T01:33:26;3.10;77.60
68217;DHT22;55037;52.354;4.992;2022-12-04T01:35:55;3.10;77.80
68217;DHT22;55037;52.354;4.992;2022-12-04T01:38:22;3.10;77.60
68217;DHT22;55037;52.354;4.992;2022-12-04T01:40:50;3.10;77.60
68217;DHT22;55037;52.354;4.992;2022-12-04T01:43:18;3.10;77.80
68217;DHT22;55037;52.354;4.992;2022-12-04T01:45:56;3.10;78.00
68217;DHT22;55037;52.354;4.992;2022-12-04T01:48:33;3.10;76.80
68217;DHT22;55037;52.354;4.992;2022-12-04T01:53:53;3.10;77.70
68217;DHT22;55037;52.354;4.992;2022-12-04T01:56:35;3.10;77.50
68217;DHT22;55037;52.354;4.992;2022-12-04T01:59:06;3.10;77.80
68217;DHT22;55037;52.354;4.992;2022-12-04T02:01:41;3.10;77.90
68217;DHT22;55037;52.354;4.992;2022-12-04T02:04:10;3.10;77.80
68217;DHT22;55037;52.354;4.992;2022-12-04T02:06:37;3.20;78.00
68217;DHT22;55037;52.354;4.992;2022-12-04T02:09:04;3.10;77.70
68217;DHT22;55037;52.354;4.992;2022-12-04T02:11:53;3.10;77.60
68217;DHT22;55037;52.354;4.992;2022-12-04T02:17:28;3.20;77.80
68217;DHT22;55037;52.354;4.992;2022-12-04T02:20:14;3.10;76.90
68217;DHT22;55037;52.354;4.992;2022-12-04T02:30:43;3.10;77.70
68217;DHT22;55037;52.354;4.992;2022-12-04T02:33:18;3.10;77.90
68217;DHT22;55037;52.354;4.992;2022-12-04T02:36:18;3.10;78.00
68217;DHT22;55037;52.354;4.992;2022-12-04T02:39:09;3.20;77.90
68217;DHT22;55037;52.354;4.992;2022-12-04T02:41:56;3.20;77.80
68217;DHT22;55037;52.354;4.992;2022-12-04T02:44:38;3.20;77.80
68217;DHT22;55037;52.354;4.992;2022-12-04T02:47:11;3.20;77.70
68217;DHT22;55037;52.354;4.992;2022-12-04T02:49:47;3.20;77.70
68217;DHT22;55037;52.354;4.992;2022-12-04T02:52:20;3.20;77.70
68217;DHT22;55037;52.354;4.992;2022-12-04T02:54:52;3.20;77.70
68217;DHT22;55037;52.354;4.992;2022-12-04T02:57:25;3.10;77.80
68217;DHT22;55037;52.354;4.992;2022-12-04T02:59:56;3.20;78.20
68217;DHT22;55037;52.354;4.992;2022-12-04T03:02:31;3.10;78.00
68217;DHT22;55037;52.354;4.992;2022-12-04T03:05:03;3.20;78.10
68217;DHT22;55037;52.354;4.992;2022-12-04T03:07:59;3.20;78.10
68217;DHT22;55037;52.354;4.992;2022-12-04T03:10:35;3.20;77.30
68217;DHT22;55037;52.354;4.992;2022-12-04T03:13:12;3.20;78.20
68217;DHT22;55037;52.354;4.992;2022-12-04T03:18:41;3.20;78.00
68217;DHT22;55037;52.354;4.992;2022-12-04T03:21:13;3.20;77.80
68217;DHT22;55037;52.354;4.992;2022-12-04T03:23:54;3.20;77.90
68217;DHT22;55037;52.354;4.992;2022-12-04T03:26:27;3.10;78.10
68217;DHT22;55037;52.354;4.992;2022-12-04T03:29:02;3.10;78.30
68217;DHT22;55037;52.354;4.992;2022-12-04T03:31:48;3.20;78.00
68217;DHT22;55037;52.354;4.992;2022-12-04T03:34:27;3.20;78.10
68217;DHT22;55037;52.354;4.992;2022-12-04T03:37:00;3.20;78.40
68217;DHT22;55037;52.354;4.992;2022-12-04T03:39:36;3.20;78.30
68217;DHT22;55037;52.354;4.992;2022-12-04T03:42:14;3.20;78.10
68217;DHT22;55037;52.354;4.992;2022-12-04T03:47:44;3.20;78.30
68217;DHT22;55037;52.354;4.992;2022-12-04T03:50:28;3.20;77.50
68217;DHT22;55037;52.354;4.992;2022-12-04T03:55:42;3.20;78.50
68217;DHT22;55037;52.354;4.992;2022-12-04T03:58:20;3.20;78.50
68217;DHT22;55037;52.354;4.992;2022-12-04T04:00:50;3.30;78.30
68217;DHT22;55037;52.354;4.992;2022-12-04T04:03:21;3.30;78.20
68217;DHT22;55037;52.354;4.992;2022-12-04T04:05:53;3.30;78.40
68217;DHT22;55037;52.354;4.992;2022-12-04T04:08:25;3.30;77.70
68217;DHT22;55037;52.354;4.992;2022-12-04T04:11:13;3.30;78.50
68217;DHT22;55037;52.354;4.992;2022-12-04T04:13:59;3.30;78.40
68217;DHT22;55037;52.354;4.992;2022-12-04T04:16:50;3.30;78.50
68217;DHT22;55037;52.354;4.992;2022-12-04T04:19:41;3.30;78.30
68217;DHT22;55037;52.354;4.992;2022-12-04T04:22:27;3.30;78.10
68217;DHT22;55037;52.354;4.992;2022-12-04T04:25:21;3.30;78.40
68217;DHT22;55037;52.354;4.992;2022-12-04T04:27:52;3.30;78.40
68217;DHT22;55037;52.354;4.992;2022-12-04T04:30:20;3.30;78.40
68217;DHT22;55037;52.354;4.992;2022-12-04T04:33:10;3.20;78.30
68217;DHT22;55037;52.354;4.992;2022-12-04T04:35:55;3.20;78.50
68217;DHT22;55037;52.354;4.992;2022-12-04T04:38:41;3.20;78.50
68217;DHT22;55037;52.354;4.992;2022-12-04T04:41:24;3.20;78.70
68217;DHT22;55037;52.354;4.992;2022-12-04T04:44:02;3.20;78.80
68217;DHT22;55037;52.354;4.992;2022-12-04T04:46:33;3.20;78.60
68217;DHT22;55037;52.354;4.992;2022-12-04T04:49:04;3.20;77.90
68217;DHT22;55037;52.354;4.992;2022-12-04T04:51:34;3.20;78.80
68217;DHT22;55037;52.354;4.992;2022-12-04T04:54:06;3.10;78.70
68217;DHT22;55037;52.354;4.992;2022-12-04T04:56:42;3.20;78.90
68217;DHT22;55037;52.354;4.992;2022-12-04T04:59:10;3.20;79.10
68217;DHT22;55037;52.354;4.992;2022-12-04T05:01:38;3.20;79.20
68217;DHT22;55037;52.354;4.992;2022-12-04T05:04:06;3.20;79.10
68217;DHT22;55037;52.354;4.992;2022-12-04T05:06:34;3.20;79.00
68217;DHT22;55037;52.354;4.992;2022-12-04T05:09:01;3.20;78.10
68217;DHT22;55037;52.354;4.992;2022-12-04T05:11:29;3.20;78.70
68217;DHT22;55037;52.354;4.992;2022-12-04T05:13:56;3.20;78.90
68217;DHT22;55037;52.354;4.992;2022-12-04T05:16:23;3.20;79.10
68217;DHT22;55037;52.354;4.992;2022-12-04T05:18:50;3.20;78.10
68217;DHT22;55037;52.354;4.992;2022-12-04T05:21:37;3.20;78.90
68217;DHT22;55037;52.354;4.992;2022-12-04T05:24:04;3.20;79.10
68217;DHT22;55037;52.354;4.992;2022-12-04T05:26:32;3.10;79.30
68217;DHT22;55037;52.354;4.992;2022-12-04T05:28:59;3.10;78.60
68217;DHT22;55037;52.354;4.992;2022-12-04T05:31:26;3.10;79.40
68217;DHT22;55037;52.354;4.992;2022-12-04T05:33:53;3.10;79.50
68217;DHT22;55037;52.354;4.992;2022-12-04T05:36:22;3.10;79.60
68217;DHT22;55037;52.354;4.992;2022-12-04T05:38:49;3.10;79.60
68217;DHT22;55037;52.354;4.992;2022-12-04T05:41:16;3.10;79.90
68217;DHT22;55037;52.354;4.992;2022-12-04T05:43:43;3.20;80.00
68217;DHT22;55037;52.354;4.992;2022-12-04T05:46:10;3.20;80.00
68217;DHT22;55037;52.354;4.992;2022-12-04T05:48:38;3.20;79.70
68217;DHT22;55037;52.354;4.992;2022-12-04T05:51:06;3.20;79.70
68217;DHT22;55037;52.354;4.992;2022-12-04T05:53:34;3.20;79.80
68217;DHT22;55037;52.354;4.992;2022-12-04T05:56:03;3.10;79.60
68217;DHT22;55037;52.354;4.992;2022-12-04T05:58:34;3.10;79.60
68217;DHT22;55037;52.354;4.992;2022-12-04T06:01:14;3.10;79.70
68217;DHT22;55037;52.354;4.992;2022-12-04T06:03:42;3.10;79.80
68217;DHT22;55037;52.354;4.992;2022-12-04T06:06:13;3.10;79.80
68217;DHT22;55037;52.354;4.992;2022-12-04T06:08:49;3.00;80.00
68217;DHT22;55037;52.354;4.992;2022-12-04T06:11:22;3.10;80.40
68217;DHT22;55037;52.354;4.992;2022-12-04T06:13:50;3.10;80.50
68217;DHT22;55037;52.354;4.992;2022-12-04T06:16:21;3.10;80.50
68217;DHT22;55037;52.354;4.992;2022-12-04T06:18:50;3.10;80.10
68217;DHT22;55037;52.354;4.992;2022-12-04T06:21:19;3.10;80.40
68217;DHT22;55037;52.354;4.992;2022-12-04T06:23:47;3.20;80.60
68217;DHT22;55037;52.354;4.992;2022-12-04T06:26:14;3.20;80.40
68217;DHT22;55037;52.354;4.992;2022-12-04T06:28:42;3.30;80.30
68217;DHT22;55037;52.354;4.992;2022-12-04T06:31:11;3.20;81.00
68217;DHT22;55037;52.354;4.992;2022-12-04T06:33:39;3.20;79.90
68217;DHT22;55037;52.354;4.992;2022-12-04T06:36:12;3.20;79.90
68217;DHT22;55037;52.354;4.992;2022-12-04T06:38:40;3.20;80.00
68217;DHT22;55037;52.354;4.992;2022-12-04T06:41:10;3.20;80.20
68217;DHT22;55037;52.354;4.992;2022-12-04T06:43:38;3.20;80.00
68217;DHT22;55037;52.354;4.992;2022-12-04T06:46:09;3.20;80.20
68217;DHT22;55037;52.354;4.992;2022-12-04T06:48:37;3.30;80.30
68217;DHT22;55037;52.354;4.992;2022-12-04T06:51:14;3.20;80.10
68217;DHT22;55037;52.354;4.992;2022-12-04T06:53:42;3.20;80.40
68217;DHT22;55037;52.354;4.992;2022-12-04T06:56:12;3.30;80.30
68217;DHT22;55037;52.354;4.992;2022-12-04T06:58:40;3.30;80.30
68217;DHT22;55037;52.354;4.992;2022-12-04T07:01:13;3.30;80.00
68217;DHT22;55037;52.354;4.992;2022-12-04T07:03:40;3.30;79.90
68217;DHT22;55037;52.354;4.992;2022-12-04T07:06:24;3.30;80.30
68217;DHT22;55037;52.354;4.992;2022-12-04T07:09:00;3.20;79.50
68217;DHT22;55037;52.354;4.992;2022-12-04T07:11:28;3.20;80.20
68217;DHT22;55037;52.354;4.992;2022-12-04T07:13:56;3.30;80.30
68217;DHT22;55037;52.354;4.992;2022-12-04T07:16:24;3.20;80.30
68217;DHT22;55037;52.354;4.992;2022-12-04T07:18:52;3.20;80.30
68217;DHT22;55037;52.354;4.992;2022-12-04T07:21:22;3.20;80.20
68217;DHT22;55037;52.354;4.992;2022-12-04T07:23:51;3.20;80.20
68217;DHT22;55037;52.354;4.992;2022-12-04T07:26:19;3.20;80.40
68217;DHT22;55037;52.354;4.992;2022-12-04T07:28:47;3.20;79.70
68217;DHT22;55037;52.354;4.992;2022-12-04T07:31:17;3.20;80.60
68217;DHT22;55037;52.354;4.992;2022-12-04T07:33:46;3.20;80.60
68217;DHT22;55037;52.354;4.992;2022-12-04T07:36:17;3.20;80.50
68217;DHT22;55037;52.354;4.992;2022-12-04T07:38:45;3.20;80.60
68217;DHT22;55037;52.354;4.992;2022-12-04T07:41:13;3.20;80.70
68217;DHT22;55037;52.354;4.992;2022-12-04T07:43:40;3.10;80.70
68217;DHT22;55037;52.354;4.992;2022-12-04T07:46:12;3.20;80.80
68217;DHT22;55037;52.354;4.992;2022-12-04T07:48:40;3.20;80.80
68217;DHT22;55037;52.354;4.992;2022-12-04T07:51:08;3.10;80.80
68217;DHT22;55037;52.354;4.992;2022-12-04T07:53:37;3.20;80.90
68217;DHT22;55037;52.354;4.992;2022-12-04T07:56:05;3.20;80.80
68217;DHT22;55037;52.354;4.992;2022-12-04T07:58:32;3.20;80.90
68217;DHT22;55037;52.354;4.992;2022-12-04T08:01:18;3.20;80.70
68217;DHT22;55037;52.354;4.992;2022-12-04T08:03:46;3.20;80.90
68217;DHT22;55037;52.354;4.992;2022-12-04T08:06:17;3.20;80.80
68217;DHT22;55037;52.354;4.992;2022-12-04T08:08:46;3.20;80.20
68217;DHT22;55037;52.354;4.992;2022-12-04T08:11:21;3.20;81.00
68217;DHT22;55037;52.354;4.992;2022-12-04T08:13:54;3.20;81.00
68217;DHT22;55037;52.354;4.992;2022-12-04T08:16:22;3.20;80.70
68217;DHT22;55037;52.354;4.992;2022-12-04T08:18:49;3.20;80.90
68217;DHT22;55037;52.354;4.992;2022-12-04T08:21:20;3.20;81.00
68217;DHT22;55037;52.354;4.992;2022-12-04T08:23:50;3.20;80.90
68217;DHT22;55037;52.354;4.992;2022-12-04T08:26:19;3.20;81.10
68217;DHT22;55037;52.354;4.992;2022-12-04T08:28:47;3.30;81.20
68217;DHT22;55037;52.354;4.992;2022-12-04T08:31:19;3.30;80.80
68217;DHT22;55037;52.354;4.992;2022-12-04T08:33:48;3.30;80.60
68217;DHT22;55037;52.354;4.992;2022-12-04T08:36:18;3.30;80.70
68217;DHT22;55037;52.354;4.992;2022-12-04T08:38:46;3.30;79.80
68217;DHT22;55037;52.354;4.992;2022-12-04T08:41:15;3.30;80.50
68217;DHT22;55037;52.354;4.992;2022-12-04T08:43:44;3.30;80.20
68217;DHT22;55037;52.354;4.992;2022-12-04T08:46:13;3.20;80.40
68217;DHT22;55037;52.354;4.992;2022-12-04T08:48:42;3.20;80.70
68217;DHT22;55037;52.354;4.992;2022-12-04T08:51:18;3.30;80.90
68217;DHT22;55037;52.354;4.992;2022-12-04T08:53:46;3.30;80.60
68217;DHT22;55037;52.354;4.992;2022-12-04T08:56:13;3.30;80.60
68217;DHT22;55037;52.354;4.992;2022-12-04T08:58:41;3.30;80.50
68217;DHT22;55037;52.354;4.992;2022-12-04T09:01:12;3.30;80.30
68217;DHT22;55037;52.354;4.992;2022-12-04T09:03:40;3.40;80.50
68217;DHT22;55037;52.354;4.992;2022-12-04T09:06:10;3.40;80.10
68217;DHT22;55037;52.354;4.992;2022-12-04T09:08:37;3.40;79.20
68217;DHT22;55037;52.354;4.992;2022-12-04T09:11:26;3.40;80.00
68217;DHT22;55037;52.354;4.992;2022-12-04T09:13:53;3.40;80.00
68217;DHT22;55037;52.354;4.992;2022-12-04T09:16:23;3.40;79.90
68217;DHT22;55037;52.354;4.992;2022-12-04T09:18:51;3.50;80.00
68217;DHT22;55037;52.354;4.992;2022-12-04T09:21:20;3.50;80.10
68217;DHT22;55037;52.354;4.992;2022-12-04T09:23:47;3.40;80.60
68217;DHT22;55037;52.354;4.992;2022-12-04T09:26:27;3.50;80.30
68217;DHT22;55037;52.354;4.992;2022-12-04T09:28:56;3.50;80.60
68217;DHT22;55037;52.354;4.992;2022-12-04T09:31:24;3.50;80.30
68217;DHT22;55037;52.354;4.992;2022-12-04T09:33:51;3.50;80.00
68217;DHT22;55037;52.354;4.992;2022-12-04T09:36:19;3.60;80.20
68217;DHT22;55037;52.354;4.992;2022-12-04T09:38:49;3.60;80.10
68217;DHT22;55037;52.354;4.992;2022-12-04T09:50:05;3.60;80.20
68217;DHT22;55037;52.354;4.992;2022-12-04T09:52:57;3.70;80.20
68217;DHT22;55037;52.354;4.992;2022-12-04T09:55:33;3.70;80.00
68217;DHT22;55037;52.354;4.992;2022-12-04T09:58:04;3.70;79.90
68217;DHT22;55037;52.354;4.992;2022-12-04T10:00:36;3.70;80.10
68217;DHT22;55037;52.354;4.992;2022-12-04T10:03:05;3.70;80.10
68217;DHT22;55037;52.354;4.992;2022-12-04T10:08:19;3.80;80.00
68217;DHT22;55037;52.354;4.992;2022-12-04T10:19:52;3.80;79.40
68217;DHT22;55037;52.354;4.992;2022-12-04T10:22:32;3.70;80.40
68217;DHT22;55037;52.354;4.992;2022-12-04T10:25:15;3.70;80.30
68217;DHT22;55037;52.354;4.992;2022-12-04T10:27:55;3.70;80.70
68217;DHT22;55037;52.354;4.992;2022-12-04T10:30:27;3.70;80.70
68217;DHT22;55037;52.354;4.992;2022-12-04T10:32:58;3.60;81.00
68217;DHT22;55037;52.354;4.992;2022-12-04T10:35:29;3.60;81.00
68217;DHT22;55037;52.354;4.992;2022-12-04T10:38:00;3.60;81.10
68217;DHT22;55037;52.354;4.992;2022-12-04T10:40:39;3.70;81.00
68217;DHT22;55037;52.354;4.992;2022-12-04T10:43:19;3.70;81.00
68217;DHT22;55037;52.354;4.992;2022-12-04T10:45:51;3.70;80.60
68217;DHT22;55037;52.354;4.992;2022-12-04T10:48:26;3.70;80.60
68217;DHT22;55037;52.354;4.992;2022-12-04T10:50:54;3.80;80.40
68217;DHT22;55037;52.354;4.992;2022-12-04T10:53:30;3.80;80.10
68217;DHT22;55037;52.354;4.992;2022-12-04T10:56:12;3.80;79.80
68217;DHT22;55037;52.354;4.992;2022-12-04T10:58:40;3.80;79.50
68217;DHT22;55037;52.354;4.992;2022-12-04T11:01:11;3.80;79.70
68217;DHT22;55037;52.354;4.992;2022-12-04T11:03:40;3.80;79.50
68217;DHT22;55037;52.354;4.992;2022-12-04T11:06:13;3.80;79.40
68217;DHT22;55037;52.354;4.992;2022-12-04T11:08:43;3.80;79.20
68217;DHT22;55037;52.354;4.992;2022-12-04T11:11:17;3.80;79.10
68217;DHT22;55037;52.354;4.992;2022-12-04T11:13:48;3.80;78.90
68217;DHT22;55037;52.354;4.992;2022-12-04T11:16:36;3.80;78.40
68217;DHT22;55037;52.354;4.992;2022-12-04T11:19:37;3.80;77.80
68217;DHT22;55037;52.354;4.992;2022-12-04T11:22:28;3.80;78.80
68217;DHT22;55037;52.354;4.992;2022-12-04T11:24:57;3.80;78.80
68217;DHT22;55037;52.354;4.992;2022-12-04T11:27:29;3.80;78.60
68217;DHT22;55037;52.354;4.992;2022-12-04T11:30:06;3.70;77.80
68217;DHT22;55037;52.354;4.992;2022-12-04T11:32:34;3.70;78.60
68217;DHT22;55037;52.354;4.992;2022-12-04T11:35:16;3.70;78.20
68217;DHT22;55037;52.354;4.992;2022-12-04T11:40:19;3.60;78.40
68217;DHT22;55037;52.354;4.992;2022-12-04T11:43:12;3.50;78.60
68217;DHT22;55037;52.354;4.992;2022-12-04T11:45:40;3.50;78.90
68217;DHT22;55037;52.354;4.992;2022-12-04T11:48:16;3.60;77.90
68217;DHT22;55037;52.354;4.992;2022-12-04T11:58:57;3.70;78.70
68217;DHT22;55037;52.354;4.992;2022-12-04T12:09:58;3.70;78.60
68217;DHT22;55037;52.354;4.992;2022-12-04T12:15:32;3.70;78.20
68217;DHT22;55037;52.354;4.992;2022-12-04T12:18:28;3.70;78.30
68217;DHT22;55037;52.354;4.992;2022-12-04T12:21:11;3.70;78.30
68217;DHT22;55037;52.354;4.992;2022-12-04T12:34:58;3.80;78.60
68217;DHT22;55037;52.354;4.992;2022-12-04T12:37:55;3.80;78.50
68217;DHT22;55037;52.354;4.992;2022-12-04T12:40:37;3.80;78.30
68217;DHT22;55037;52.354;4.992;2022-12-04T12:43:18;3.70;77.90
68217;DHT22;55037;52.354;4.992;2022-12-04T12:45:48;3.70;78.10
68217;DHT22;55037;52.354;4.992;2022-12-04T12:48:26;3.70;78.00
68217;DHT22;55037;52.354;4.992;2022-12-04T12:53:50;3.80;78.90
68217;DHT22;55037;52.354;4.992;2022-12-04T12:56:29;3.80;78.60
68217;DHT22;55037;52.354;4.992;2022-12-04T12:58:59;3.80;78.40
68217;DHT22;55037;52.354;4.992;2022-12-04T13:02:05;3.90;78.30
68217;DHT22;55037;52.354;4.992;2022-12-04T13:04:39;3.80;78.30
68217;DHT22;55037;52.354;4.992;2022-12-04T13:07:22;3.80;78.20
68217;DHT22;55037;52.354;4.992;2022-12-04T13:10:15;3.80;77.30
68217;DHT22;55037;52.354;4.992;2022-12-04T13:15:47;3.80;78.20
68217;DHT22;55037;52.354;4.992;2022-12-04T13:21:40;3.80;78.70
68217;DHT22;55037;52.354;4.992;2022-12-04T13:26:51;3.80;78.50
68217;DHT22;55037;52.354;4.992;2022-12-04T13:32:48;3.80;78.30
68217;DHT22;55037;52.354;4.992;2022-12-04T13:41:01;4.00;78.80
68217;DHT22;55037;52.354;4.992;2022-12-04T13:46:05;4.00;78.40
68217;DHT22;55037;52.354;4.992;2022-12-04T13:48:36;4.00;78.60
68217;DHT22;55037;52.354;4.992;2022-12-04T13:51:39;4.00;78.70
68217;DHT22;55037;52.354;4.992;2022-12-04T13:56:39;4.00;79.60
68217;DHT22;55037;52.354;4.992;2022-12-04T14:01:58;3.90;79.20
68217;DHT22;55037;52.354;4.992;2022-12-04T14:07:04;3.90;79.50
68217;DHT22;55037;52.354;4.992;2022-12-04T14:09:43;3.90;79.50
68217;DHT22;55037;52.354;4.992;2022-12-04T14:12:15;4.00;79.50
68217;DHT22;55037;52.354;4.992;2022-12-04T14:14:58;4.00;79.70
68217;DHT22;55037;52.354;4.992;2022-12-04T14:17:33;4.00;80.00
68217;DHT22;55037;52.354;4.992;2022-12-04T14:20:03;4.00;80.00
68217;DHT22;55037;52.354;4.992;2022-12-04T14:27:42;4.10;80.50
68217;DHT22;55037;52.354;4.992;2022-12-04T14:30:28;4.10;80.20
68217;DHT22;55037;52.354;4.992;2022-12-04T14:33:09;4.10;80.20
68217;DHT22;55037;52.354;4.992;2022-12-04T14:35:48;4.10;80.20
68217;DHT22;55037;52.354;4.992;2022-12-04T14:38:20;4.00;79.60
68217;DHT22;55037;52.354;4.992;2022-12-04T14:40:52;4.00;80.40
68217;DHT22;55037;52.354;4.992;2022-12-04T14:43:29;5.10;81.20
68217;DHT22;55037;52.354;4.992;2022-12-04T14:46:19;4.00;80.70
68217;DHT22;55037;52.354;4.992;2022-12-04T14:54:11;4.00;80.50
68217;DHT22;55037;52.354;4.992;2022-12-04T14:59:19;4.00;80.40
68217;DHT22;55037;52.354;4.992;2022-12-04T15:01:48;4.00;80.30
68217;DHT22;55037;52.354;4.992;2022-12-04T15:06:46;4.00;80.20
68217;DHT22;55037;52.354;4.992;2022-12-04T15:09:20;4.00;80.60
68217;DHT22;55037;52.354;4.992;2022-12-04T15:17:35;4.20;80.40
68217;DHT22;55037;52.354;4.992;2022-12-04T15:20:16;4.20;80.30
68217;DHT22;55037;52.354;4.992;2022-12-04T15:22:44;4.20;80.30
68217;DHT22;55037;52.354;4.992;2022-12-04T15:27:46;4.10;80.50
68217;DHT22;55037;52.354;4.992;2022-12-04T15:30:17;4.20;80.70
68217;DHT22;55037;52.354;4.992;2022-12-04T15:32:48;4.20;80.50
68217;DHT22;55037;52.354;4.992;2022-12-04T15:35:26;4.20;80.20
68217;DHT22;55037;52.354;4.992;2022-12-04T15:37:54;4.20;80.00
68217;DHT22;55037;52.354;4.992;2022-12-04T15:40:25;4.20;80.00
68217;DHT22;55037;52.354;4.992;2022-12-04T15:42:53;4.10;80.00
68217;DHT22;55037;52.354;4.992;2022-12-04T15:45:32;4.20;80.10
68217;DHT22;55037;52.354;4.992;2022-12-04T15:48:00;4.10;80.20
68217;DHT22;55037;52.354;4.992;2022-12-04T15:50:28;4.20;80.50
68217;DHT22;55037;52.354;4.992;2022-12-04T15:55:50;4.30;80.60
68217;DHT22;55037;52.354;4.992;2022-12-04T15:58:29;4.30;80.50
68217;DHT22;55037;52.354;4.992;2022-12-04T16:01:08;4.30;80.50
68217;DHT22;55037;52.354;4.992;2022-12-04T16:06:27;4.40;80.40
68217;DHT22;55037;52.354;4.992;2022-12-04T16:08:57;4.40;80.60
68217;DHT22;55037;52.354;4.992;2022-12-04T16:11:37;4.40;80.50
68217;DHT22;55037;52.354;4.992;2022-12-04T16:16:36;4.40;80.20
68217;DHT22;55037;52.354;4.992;2022-12-04T16:19:28;4.40;79.90
68217;DHT22;55037;52.354;4.992;2022-12-04T16:21:56;4.40;79.80
68217;DHT22;55037;52.354;4.992;2022-12-04T16:24:24;4.40;79.90
68217;DHT22;55037;52.354;4.992;2022-12-04T16:26:52;4.40;79.80
68217;DHT22;55037;52.354;4.992;2022-12-04T16:29:22;4.40;80.20
68217;DHT22;55037;52.354;4.992;2022-12-04T16:31:50;4.40;80.20
68217;DHT22;55037;52.354;4.992;2022-12-04T16:34:17;4.50;80.00
68217;DHT22;55037;52.354;4.992;2022-12-04T16:36:45;4.50;80.00
68217;DHT22;55037;52.354;4.992;2022-12-04T16:39:12;4.50;79.80
68217;DHT22;55037;52.354;4.992;2022-12-04T16:41:39;4.50;79.90
68217;DHT22;55037;52.354;4.992;2022-12-04T16:44:12;4.50;80.10
68217;DHT22;55037;52.354;4.992;2022-12-04T16:46:40;4.50;80.00
68217;DHT22;55037;52.354;4.992;2022-12-04T16:49:11;4.50;80.10
68217;DHT22;55037;52.354;4.992;2022-12-04T16:51:44;4.50;80.00
68217;DHT22;55037;52.354;4.992;2022-12-04T16:54:12;4.50;80.00
68217;DHT22;55037;52.354;4.992;2022-12-04T16:56:42;4.60;80.10
68217;DHT22;55037;52.354;4.992;2022-12-04T16:59:09;4.60;80.00
68217;DHT22;55037;52.354;4.992;2022-12-04T17:01:46;4.60;80.00
68217;DHT22;55037;52.354;4.992;2022-12-04T17:04:14;4.60;79.80
68217;DHT22;55037;52.354;4.992;2022-12-04T17:06:43;4.60;79.70
68217;DHT22;55037;52.354;4.992;2022-12-04T17:09:10;4.60;79.80
68217;DHT22;55037;52.354;4.992;2022-12-04T17:11:38;4.60;79.90
68217;DHT22;55037;52.354;4.992;2022-12-04T17:14:06;4.70;79.90
68217;DHT22;55037;52.354;4.992;2022-12-04T17:16:39;4.70;79.80
68217;DHT22;55037;52.354;4.992;2022-12-04T17:19:10;4.70;79.80
68217;DHT22;55037;52.354;4.992;2022-12-04T17:21:38;4.70;79.50
68217;DHT22;55037;52.354;4.992;2022-12-04T17:24:06;4.70;79.90
68217;DHT22;55037;52.354;4.992;2022-12-04T17:26:34;4.70;79.90
68217;DHT22;55037;52.354;4.992;2022-12-04T17:29:01;4.70;79.90
68217;DHT22;55037;52.354;4.992;2022-12-04T17:31:29;4.70;79.80
68217;DHT22;55037;52.354;4.992;2022-12-04T17:33:58;4.70;80.00
68217;DHT22;55037;52.354;4.992;2022-12-04T17:36:26;4.70;80.00
68217;DHT22;55037;52.354;4.992;2022-12-04T17:38:55;4.70;79.40
68217;DHT22;55037;52.354;4.992;2022-12-04T17:41:23;4.70;80.10
68217;DHT22;55037;52.354;4.992;2022-12-04T17:43:50;4.80;79.80
68217;DHT22;55037;52.354;4.992;2022-12-04T17:46:19;4.80;79.70
68217;DHT22;55037;52.354;4.992;2022-12-04T17:48:48;4.80;79.70
68217;DHT22;55037;52.354;4.992;2022-12-04T17:51:19;4.80;79.80
68217;DHT22;55037;52.354;4.992;2022-12-04T17:53:47;4.80;79.70
68217;DHT22;55037;52.354;4.992;2022-12-04T17:56:17;4.80;79.90
68217;DHT22;55037;52.354;4.992;2022-12-04T17:58:46;4.80;79.20
68217;DHT22;55037;52.354;4.992;2022-12-04T18:01:22;4.80;80.00
68217;DHT22;55037;52.354;4.992;2022-12-04T18:04:01;4.80;80.50
68217;DHT22;55037;52.354;4.992;2022-12-04T18:06:40;4.90;80.90
68217;DHT22;55037;52.354;4.992;2022-12-04T18:09:10;4.90;81.30
68217;DHT22;55037;52.354;4.992;2022-12-04T18:11:39;4.90;81.30
68217;DHT22;55037;52.354;4.992;2022-12-04T18:14:09;4.90;81.40
68217;DHT22;55037;52.354;4.992;2022-12-04T18:16:41;4.90;81.40
68217;DHT22;55037;52.354;4.992;2022-12-04T18:19:09;4.90;81.40
68217;DHT22;55037;52.354;4.992;2022-12-04T18:21:37;4.90;81.50
68217;DHT22;55037;52.354;4.992;2022-12-04T18:24:04;4.90;81.60
68217;DHT22;55037;52.354;4.992;2022-12-04T18:26:34;4.90;81.80
68217;DHT22;55037;52.354;4.992;2022-12-04T18:29:03;4.90;81.90
68217;DHT22;55037;52.354;4.992;2022-12-04T18:31:31;4.90;82.10
68217;DHT22;55037;52.354;4.992;2022-12-04T18:33:58;4.90;82.10
68217;DHT22;55037;52.354;4.992;2022-12-04T18:36:28;4.90;82.30
68217;DHT22;55037;52.354;4.992;2022-12-04T18:39:00;4.90;82.40
68217;DHT22;55037;52.354;4.992;2022-12-04T18:41:28;4.90;82.40